CheckWX is a tool to help pilots better visualize weather data.  It is not intended as a substitute for an official pre-flight weather briefing.

21:55:56 UTC

EGFF TAF
Cardiff International Airport
Cardiff, United Kingdom
TAF EGFF 091703Z 0918/1018 30010KT 9999 FEW030 BECMG 0918/0921 VRB03KT BECMG 1000/1003 18010KT PROB30 TEMPO 1003/1007 19016G26KT BECMG 1007/1010 19020KT TEMPO 1009/1015 20023G35KT 8000 RA BKN014 PROB40 TEMPO 1014/1016 20030G45KT 1400 +RA BKN009 BECMG 1015/1017 27023G35KT TEMPO 1015/1018 8000 RA

Dec-9@
18:00 UTC

Dec-9 @ 18:00 UTC

Dec-10@
18:00 UTC

Dec-10 @ 18:00 UTC

TAF EGFF 091703Z 0918/1018 30010KT 9999 FEW030
Wind
  • 300° at 10 KTS
Cloud Levels
  • Few at 3,000' AGL

Dec-9@
18:00 UTC

Dec-9 @ 18:00 UTC

Dec-10@
00:00 UTC

Dec-10 @ 00:00 UTC

BECMG 0918/0921 VRB03KT

Becoming

Becoming Conditions expected by Mon, Dec 9, 2019 @ 21:00 UTC

Wind
  • Variable at 3 KTS
Cloud Levels
  • Few at 3,000' AGL

Dec-10@
00:00 UTC

Dec-10 @ 00:00 UTC

Dec-10@
07:00 UTC

Dec-10 @ 07:00 UTC

BECMG 1000/1003 18010KT

Becoming

Becoming Conditions expected by Tue, Dec 10, 2019 @ 03:00 UTC

Wind
  • 180° at 10 KTS
Cloud Levels
  • Few at 3,000' AGL

Dec-10@
03:00 UTC

Dec-10 @ 03:00 UTC

Dec-10@
07:00 UTC

Dec-10 @ 07:00 UTC

PROB30 TEMPO 1003/1007 19016G26KT

Temporary - 30% Likelihood

Temporary - 30% Likelihood during this time.

Wind
  • 190° at 16 KTS
  • {Gusting to 26 KTS

Dec-10@
07:00 UTC

Dec-10 @ 07:00 UTC

Dec-10@
15:00 UTC

Dec-10 @ 15:00 UTC

BECMG 1007/1010 19020KT

Becoming

Becoming Conditions expected by Tue, Dec 10, 2019 @ 10:00 UTC

Wind
  • 190° at 20 KTS
Cloud Levels
  • Few at 3,000' AGL

Dec-10@
09:00 UTC

Dec-10 @ 09:00 UTC

Dec-10@
15:00 UTC

Dec-10 @ 15:00 UTC

TEMPO 1009/1015 20023G35KT 8000 RA BKN014

Temporary

Temporary Changes expected for less than half the time period

Wind
  • 200° at 23 KTS
  • {Gusting to 35 KTS
Conditions
Rain
Cloud Levels
  • Broken at 1,400' AGL

Dec-10@
14:00 UTC

Dec-10 @ 14:00 UTC

Dec-10@
16:00 UTC

Dec-10 @ 16:00 UTC

PROB40 TEMPO 1014/1016 20030G45KT 1400 +RA BKN009

Temporary - 40% Likelihood

Temporary - 40% Likelihood during this time.

Wind
  • 200° at 30 KTS
  • {Gusting to 45 KTS
Conditions
Heavy Rain
Cloud Levels
  • Broken at 900' AGL

Dec-10@
15:00 UTC

Dec-10 @ 15:00 UTC

Dec-10@
18:00 UTC

Dec-10 @ 18:00 UTC

BECMG 1015/1017 27023G35KT

Becoming

Becoming Conditions expected by Tue, Dec 10, 2019 @ 17:00 UTC

Wind
  • 270° at 23 KTS
  • {Gusting to 35 KTS
Cloud Levels
  • Few at 3,000' AGL

Dec-10@
15:00 UTC

Dec-10 @ 15:00 UTC

Dec-10@
18:00 UTC

Dec-10 @ 18:00 UTC

TEMPO 1015/1018 8000 RA

Temporary

Temporary Changes expected for less than half the time period

Conditions
Rain